createdAt,value
2019-03-20T00:00:45.292Z,75.12
2019-03-20T00:03:14.864Z,75.51
2019-03-20T00:05:47.124Z,75.46
2019-03-20T00:08:16.634Z,75.80
2019-03-20T00:10:46.125Z,76.06
2019-03-20T00:13:15.769Z,75.58
2019-03-20T00:15:45.338Z,75.31
2019-03-20T00:18:14.941Z,75.45
2019-03-20T00:20:44.586Z,74.98
2019-03-20T00:23:16.829Z,75.30
2019-03-20T00:25:46.413Z,74.88
2019-03-20T00:28:16.999Z,75.09
2019-03-20T00:30:46.651Z,75.11
2019-03-20T00:33:16.229Z,76.59
2019-03-20T00:35:45.811Z,76.60
2019-03-20T00:38:15.390Z,76.26
2019-03-20T00:40:45.024Z,76.19
2019-03-20T00:43:14.658Z,75.92
2019-03-20T00:45:44.152Z,75.11
2019-03-20T00:48:14.205Z,76.25
2019-03-20T00:50:44.044Z,76.00
2019-03-20T00:53:13.558Z,75.39
2019-03-20T00:55:43.124Z,76.75
2019-03-20T00:58:12.640Z,76.80
2019-03-20T01:00:42.236Z,77.79
2019-03-20T01:03:11.898Z,77.40
2019-03-20T01:05:41.481Z,77.08
2019-03-20T01:08:11.052Z,76.64
2019-03-20T01:10:40.620Z,76.88
2019-03-20T01:13:10.884Z,76.54
2019-03-20T01:15:40.436Z,77.11
2019-03-20T01:18:09.951Z,77.46
2019-03-20T01:20:39.469Z,77.49
2019-03-20T01:23:08.975Z,78.02
2019-03-20T01:25:39.027Z,77.78
2019-03-20T01:28:08.556Z,78.29
2019-03-20T01:30:39.727Z,78.10
2019-03-20T01:33:16.755Z,77.50
2019-03-20T01:35:46.299Z,77.71
2019-03-20T01:38:15.815Z,78.09
2019-03-20T01:40:45.368Z,78.43
2019-03-20T01:43:14.951Z,77.90
2019-03-20T01:45:44.524Z,77.77
2019-03-20T01:48:14.059Z,78.01
2019-03-20T01:50:43.837Z,78.20
2019-03-20T01:53:16.252Z,78.33
2019-03-20T01:55:45.909Z,78.94
2019-03-20T01:58:15.439Z,78.72
2019-03-20T02:00:45.011Z,78.31
2019-03-20T02:03:14.562Z,78.08
2019-03-20T02:05:44.164Z,78.16
2019-03-20T02:08:14.356Z,78.48
2019-03-20T02:10:43.974Z,78.22
2019-03-20T02:13:13.643Z,79.10
2019-03-20T02:15:43.157Z,79.12
2019-03-20T02:18:13.500Z,79.02
2019-03-20T02:20:43.034Z,79.06
2019-03-20T02:23:15.412Z,79.09
2019-03-20T02:25:44.950Z,78.88
2019-03-20T02:28:14.483Z,78.45
2019-03-20T02:30:44.074Z,79.45
2019-03-20T02:33:14.727Z,79.98
2019-03-20T02:35:51.499Z,79.80
2019-03-20T02:38:15.521Z,79.64
2019-03-20T02:40:45.086Z,79.38
2019-03-20T02:43:14.633Z,79.02
2019-03-20T02:45:44.242Z,78.01
2019-03-20T02:48:13.786Z,78.07
2019-03-20T02:50:43.377Z,77.87
2019-03-20T02:53:12.893Z,77.61
2019-03-20T02:55:42.515Z,77.80
2019-03-20T02:58:12.070Z,78.70
2019-03-20T03:00:41.637Z,78.36
2019-03-20T03:03:11.258Z,77.50
2019-03-20T03:05:40.838Z,78.00
2019-03-20T03:08:10.492Z,78.01
2019-03-20T03:10:40.163Z,77.71
2019-03-20T03:13:09.737Z,77.74
2019-03-20T03:15:39.370Z,77.77
2019-03-20T03:18:09.404Z,77.62
2019-03-20T03:20:39.001Z,76.69
2019-03-20T03:23:08.589Z,76.99
2019-03-20T03:25:38.156Z,76.75
2019-03-20T03:28:07.755Z,77.01
2019-03-20T03:30:37.336Z,77.01
2019-03-20T03:33:06.977Z,76.84
2019-03-20T03:35:36.472Z,76.50
2019-03-20T03:38:06.139Z,76.01
2019-03-20T03:40:35.819Z,75.96
2019-03-20T03:43:07.872Z,75.42
2019-03-20T03:45:37.418Z,75.28
2019-03-20T03:48:06.942Z,75.47
2019-03-20T03:50:36.459Z,76.21
2019-03-20T03:53:06.847Z,75.89
2019-03-20T03:55:36.432Z,75.83
2019-03-20T03:58:06.085Z,75.71
2019-03-20T04:00:36.118Z,75.75
2019-03-20T04:03:05.796Z,76.32
2019-03-20T04:05:35.450Z,76.09
2019-03-20T04:08:05.189Z,76.05
2019-03-20T04:10:34.776Z,76.05
2019-03-20T04:13:04.356Z,75.87
2019-03-20T04:15:36.403Z,75.92
2019-03-20T04:18:05.283Z,75.86
2019-03-20T04:20:34.793Z,75.82
2019-03-20T04:23:04.976Z,75.77
2019-03-20T04:25:34.824Z,75.44
2019-03-20T04:28:04.460Z,74.97
2019-03-20T04:30:33.988Z,74.84
2019-03-20T04:33:03.585Z,75.01
2019-03-20T04:35:33.131Z,76.52
2019-03-20T04:38:02.797Z,76.14
2019-03-20T04:40:32.286Z,75.94
2019-03-20T04:43:13.778Z,75.43
2019-03-20T04:45:43.607Z,73.94
2019-03-20T04:48:13.207Z,74.18
2019-03-20T04:50:42.864Z,76.32
2019-03-20T04:53:12.379Z,75.83
2019-03-20T04:55:41.975Z,75.48
2019-03-20T04:58:11.586Z,73.52
2019-03-20T05:00:41.166Z,73.03
2019-03-20T05:03:10.694Z,73.72
2019-03-20T05:05:40.393Z,73.39
2019-03-20T05:08:09.925Z,73.92
2019-03-20T05:10:39.535Z,73.18
2019-03-20T05:13:09.078Z,72.79
2019-03-20T05:15:38.626Z,73.17
2019-03-20T05:18:08.255Z,73.37
2019-03-20T05:20:38.000Z,73.39
2019-03-20T05:23:08.572Z,72.60
2019-03-20T05:25:38.191Z,73.00
2019-03-20T05:28:12.004Z,71.89
2019-03-20T05:30:41.547Z,72.20
2019-03-20T05:33:11.132Z,72.79
2019-03-20T05:35:40.739Z,72.41
2019-03-20T05:38:10.349Z,72.45
2019-03-20T05:40:39.945Z,72.35
2019-03-20T05:43:09.584Z,72.55
2019-03-20T05:45:39.154Z,72.03
2019-03-20T05:48:08.700Z,71.75
2019-03-20T05:50:38.337Z,71.22
2019-03-20T05:53:07.977Z,71.47
2019-03-20T05:55:37.550Z,71.30
2019-03-20T05:58:09.731Z,70.85
2019-03-20T06:00:39.303Z,71.44
2019-03-20T06:03:08.969Z,70.94
2019-03-20T06:05:38.543Z,70.57
2019-03-20T06:08:08.231Z,70.38
2019-03-20T06:10:38.027Z,68.44
2019-03-20T06:13:07.638Z,66.31
2019-03-20T06:15:37.172Z,65.02
2019-03-20T06:18:06.800Z,63.23
2019-03-20T06:20:36.371Z,61.07
2019-03-20T06:23:05.911Z,60.87
2019-03-20T06:25:35.453Z,58.96
2019-03-20T06:28:05.155Z,58.25
2019-03-20T06:30:34.827Z,56.81
2019-03-20T06:33:06.350Z,56.07
2019-03-20T06:35:36.608Z,54.12
2019-03-20T06:38:06.277Z,54.60
2019-03-20T06:40:35.931Z,53.06
2019-03-20T06:43:05.577Z,51.21
2019-03-20T06:45:35.162Z,49.98
2019-03-20T06:48:04.976Z,49.71
2019-03-20T06:50:34.542Z,49.07
2019-03-20T06:53:04.115Z,49.25
2019-03-20T06:55:33.630Z,49.83
2019-03-20T06:58:03.783Z,49.59
2019-03-20T07:00:55.376Z,47.51
2019-03-20T07:03:41.736Z,47.43
2019-03-20T07:06:47.941Z,47.31
2019-03-20T07:09:37.120Z,46.86
2019-03-20T07:12:06.646Z,47.12
2019-03-20T07:14:36.264Z,46.68
2019-03-20T07:17:05.966Z,46.08
2019-03-20T07:19:35.966Z,44.67
2019-03-20T07:22:05.564Z,43.05
2019-03-20T07:24:35.274Z,41.63
2019-03-20T07:27:04.885Z,41.53
2019-03-20T07:29:34.445Z,42.11
2019-03-20T07:32:03.987Z,43.14
2019-03-20T07:34:33.514Z,43.88
2019-03-20T07:37:03.038Z,42.42
2019-03-20T07:39:32.956Z,41.53
2019-03-20T07:42:02.562Z,43.79
2019-03-20T07:44:32.166Z,45.39
2019-03-20T07:47:01.864Z,46.63
2019-03-20T07:49:31.465Z,47.19
2019-03-20T07:52:01.058Z,47.27
2019-03-20T07:54:54.814Z,49.12
2019-03-20T07:57:24.870Z,49.42
2019-03-20T07:59:54.395Z,50.69
2019-03-20T08:02:24.085Z,52.32
2019-03-20T08:04:53.742Z,52.48
2019-03-20T08:07:23.431Z,52.29
2019-03-20T08:09:53.059Z,53.97
2019-03-20T08:12:22.649Z,55.10
2019-03-20T08:14:52.242Z,55.48
2019-03-20T08:17:22.434Z,54.39
2019-03-20T08:19:52.083Z,54.20
2019-03-20T08:22:21.616Z,51.69
2019-03-20T08:24:51.170Z,46.50
2019-03-20T08:27:20.728Z,43.91
2019-03-20T08:29:50.275Z,42.64
2019-03-20T08:32:19.866Z,41.76
2019-03-20T08:34:49.370Z,37.98
2019-03-20T08:37:18.876Z,38.42
2019-03-20T08:39:48.724Z,37.91
2019-03-20T08:42:18.233Z,35.46
2019-03-20T08:44:47.894Z,34.89
2019-03-20T08:47:17.553Z,37.08
2019-03-20T08:49:47.150Z,38.55
2019-03-20T08:52:16.760Z,37.21
2019-03-20T08:54:46.373Z,37.86
2019-03-20T08:57:15.913Z,35.24
2019-03-20T08:59:45.896Z,33.54
2019-03-20T09:02:15.629Z,33.93
2019-03-20T09:04:45.195Z,35.37
2019-03-20T09:07:14.795Z,38.14
2019-03-20T09:09:44.331Z,40.72
2019-03-20T09:12:13.857Z,44.22
2019-03-20T09:14:43.398Z,46.06
2019-03-20T09:17:13.026Z,47.63
2019-03-20T09:19:42.556Z,46.91
2019-03-20T09:22:12.060Z,48.76
2019-03-20T09:24:41.659Z,47.88
2019-03-20T09:27:11.240Z,49.40
2019-03-20T09:29:41.242Z,49.02
2019-03-20T09:32:11.096Z,53.35
2019-03-20T09:34:40.620Z,52.28
2019-03-20T09:37:10.214Z,51.49
2019-03-20T09:39:39.790Z,50.78
2019-03-20T09:42:09.372Z,50.26
2019-03-20T09:44:38.917Z,51.34
2019-03-20T09:47:08.768Z,52.34
2019-03-20T09:49:38.286Z,52.77
2019-03-20T09:52:07.898Z,53.76
2019-03-20T09:54:37.536Z,53.88
2019-03-20T09:57:07.034Z,52.90
2019-03-20T09:59:36.702Z,53.45
2019-03-20T10:02:06.864Z,55.25
2019-03-20T10:04:36.406Z,54.66
2019-03-20T10:07:06.080Z,54.51
2019-03-20T10:09:36.116Z,54.69
2019-03-20T10:12:06.243Z,55.40
2019-03-20T10:14:35.896Z,57.03
2019-03-20T10:17:05.609Z,57.51
2019-03-20T10:19:35.131Z,56.72
2019-03-20T10:22:04.719Z,55.93
2019-03-20T10:24:34.287Z,56.48
2019-03-20T10:27:04.257Z,56.36
2019-03-20T10:29:34.265Z,55.66
2019-03-20T10:32:05.966Z,56.26
2019-03-20T10:34:39.435Z,55.57
2019-03-20T10:37:06.887Z,55.81
2019-03-20T10:39:36.637Z,55.57
2019-03-20T10:42:06.222Z,56.28
2019-03-20T10:44:35.829Z,55.48
2019-03-20T10:47:05.637Z,56.34
2019-03-20T10:49:35.237Z,56.74
2019-03-20T10:52:05.039Z,56.72
2019-03-20T10:54:36.661Z,56.76
2019-03-20T10:57:06.394Z,57.86
2019-03-20T10:59:36.123Z,57.37
2019-03-20T11:02:06.300Z,57.54
2019-03-20T11:04:35.806Z,56.99
2019-03-20T11:07:06.048Z,56.06
2019-03-20T11:09:35.697Z,55.52
2019-03-20T11:12:05.463Z,56.95
2019-03-20T11:14:35.108Z,55.62
2019-03-20T11:17:05.013Z,54.94
2019-03-20T11:19:34.833Z,54.78
2019-03-20T11:22:04.590Z,55.47
2019-03-20T11:24:34.252Z,56.16
2019-03-20T11:27:03.906Z,55.79
2019-03-20T11:29:33.683Z,56.58
2019-03-20T11:32:03.321Z,56.09
2019-03-20T11:34:32.996Z,56.08
2019-03-20T11:37:02.758Z,55.85
2019-03-20T11:39:32.581Z,56.19
2019-03-20T11:42:02.195Z,56.56
2019-03-20T11:44:31.731Z,56.42
2019-03-20T11:47:01.565Z,55.91
2019-03-20T11:49:31.185Z,56.88
2019-03-20T11:52:00.712Z,57.18
2019-03-20T11:54:30.262Z,56.66
2019-03-20T11:56:59.906Z,57.39
2019-03-20T11:59:29.421Z,56.39
2019-03-20T12:01:59.069Z,57.80
2019-03-20T12:04:28.603Z,58.29
2019-03-20T12:06:58.213Z,58.69
2019-03-20T12:09:27.816Z,59.32
2019-03-20T12:11:57.496Z,59.29
2019-03-20T12:14:27.122Z,58.30
2019-03-20T12:16:56.816Z,58.05
2019-03-20T12:19:26.383Z,58.21
2019-03-20T12:21:55.898Z,60.98
2019-03-20T12:24:25.566Z,62.49
2019-03-20T12:26:55.153Z,62.61
2019-03-20T12:29:24.780Z,62.06
2019-03-20T12:31:54.818Z,61.02
2019-03-20T12:34:24.351Z,63.14
2019-03-20T12:36:56.490Z,63.35
2019-03-20T12:39:25.509Z,63.58
2019-03-20T12:41:55.167Z,63.48
2019-03-20T12:44:24.775Z,63.61
2019-03-20T12:46:54.944Z,64.33
2019-03-20T12:49:24.635Z,64.83
2019-03-20T12:51:54.207Z,65.52
2019-03-20T12:54:23.822Z,65.62
2019-03-20T12:56:53.350Z,64.93
2019-03-20T12:59:22.954Z,65.50
2019-03-20T13:01:52.596Z,66.31
2019-03-20T13:04:22.677Z,66.83
2019-03-20T13:06:55.238Z,66.05
2019-03-20T13:09:24.870Z,66.87
2019-03-20T13:11:54.551Z,67.23
2019-03-20T13:14:24.134Z,67.19
2019-03-20T13:16:53.770Z,67.45
2019-03-20T13:19:23.427Z,68.14
2019-03-20T13:21:53.098Z,67.99
2019-03-20T13:24:22.955Z,68.58
2019-03-20T13:26:52.537Z,68.96
2019-03-20T13:29:22.211Z,68.71
2019-03-20T13:31:55.399Z,68.00
2019-03-20T13:34:24.992Z,67.04
2019-03-20T13:36:55.193Z,68.07
2019-03-20T13:39:24.858Z,68.51
2019-03-20T13:41:54.416Z,68.41
2019-03-20T13:44:24.026Z,69.20
2019-03-20T13:46:53.668Z,69.93
2019-03-20T13:49:23.197Z,69.75
2019-03-20T13:51:52.808Z,69.74
2019-03-20T13:54:22.636Z,71.11
2019-03-20T13:56:52.355Z,70.83
2019-03-20T13:59:21.944Z,71.07
2019-03-20T14:01:51.571Z,70.47
2019-03-20T14:04:21.345Z,70.04
2019-03-20T14:06:50.922Z,69.88
2019-03-20T14:09:20.666Z,69.98
2019-03-20T14:11:50.199Z,69.35
2019-03-20T14:14:19.819Z,68.81
2019-03-20T14:16:49.528Z,69.57
2019-03-20T14:19:19.133Z,69.36
2019-03-20T14:21:48.738Z,71.25
2019-03-20T14:24:18.456Z,71.89
2019-03-20T14:26:48.134Z,71.55
2019-03-20T14:29:17.749Z,71.57
2019-03-20T14:31:47.438Z,72.35
2019-03-20T14:34:17.039Z,71.44
2019-03-20T14:36:46.710Z,71.21
2019-03-20T14:39:16.350Z,74.41
2019-03-20T14:41:46.066Z,74.24
2019-03-20T14:44:15.597Z,74.81
2019-03-20T14:46:45.283Z,73.98
2019-03-20T14:49:14.884Z,73.94
2019-03-20T14:51:44.497Z,74.13
2019-03-20T14:54:14.097Z,73.89
2019-03-20T14:56:43.820Z,74.81
2019-03-20T14:59:13.369Z,74.87
2019-03-20T15:01:43.381Z,74.39
2019-03-20T15:04:13.483Z,74.79
2019-03-20T15:06:43.194Z,73.78
2019-03-20T15:09:13.084Z,73.82
2019-03-20T15:11:43.787Z,74.53
2019-03-20T15:14:13.427Z,73.96
2019-03-20T15:16:43.049Z,73.98
2019-03-20T15:19:12.762Z,74.08
2019-03-20T15:21:42.514Z,73.57
2019-03-20T15:24:12.585Z,73.53
2019-03-20T15:26:42.194Z,73.70
2019-03-20T15:29:11.726Z,73.83
2019-03-20T15:31:41.353Z,73.58
2019-03-20T15:34:10.987Z,73.30
2019-03-20T15:36:40.924Z,73.30
2019-03-20T15:39:10.532Z,74.00
2019-03-20T15:41:40.061Z,74.17
2019-03-20T15:44:09.756Z,74.84
2019-03-20T15:46:40.023Z,73.83
2019-03-20T15:49:09.543Z,73.02
2019-03-20T15:51:40.750Z,72.46
2019-03-20T15:54:10.418Z,72.88
2019-03-20T15:56:40.020Z,73.76
2019-03-20T15:59:09.580Z,73.94
2019-03-20T16:01:39.189Z,74.14
2019-03-20T16:04:08.995Z,74.62
2019-03-20T16:06:38.538Z,74.39
2019-03-20T16:09:09.928Z,73.56
2019-03-20T16:11:39.515Z,74.49
2019-03-20T16:14:09.252Z,73.86
2019-03-20T16:16:38.867Z,73.66
2019-03-20T16:19:08.584Z,72.98
2019-03-20T16:21:38.226Z,74.04
2019-03-20T16:24:07.863Z,75.26
2019-03-20T16:26:37.551Z,74.02
2019-03-20T16:29:07.183Z,73.81
2019-03-20T16:31:39.729Z,74.77
2019-03-20T16:34:09.335Z,74.16
2019-03-20T16:36:38.874Z,74.24
2019-03-20T16:39:30.130Z,74.86
2019-03-20T16:41:59.820Z,74.18
2019-03-20T16:44:30.625Z,73.61
2019-03-20T16:47:00.717Z,73.42
2019-03-20T16:49:30.467Z,72.95
2019-03-20T16:52:00.189Z,73.36
2019-03-20T16:54:29.845Z,73.51
2019-03-20T16:56:59.870Z,73.48
2019-03-20T16:59:29.673Z,73.40
2019-03-20T17:02:02.785Z,74.52
2019-03-20T17:04:32.942Z,74.55
2019-03-20T17:07:02.663Z,74.14
2019-03-20T17:09:32.260Z,74.23
2019-03-20T17:12:01.841Z,73.91
2019-03-20T17:14:31.522Z,74.33
2019-03-20T17:17:01.248Z,74.83
2019-03-20T17:19:30.970Z,73.66
2019-03-20T17:22:00.648Z,74.08
2019-03-20T17:24:31.588Z,74.41
2019-03-20T17:27:01.277Z,75.06
2019-03-20T17:29:31.413Z,74.67
2019-03-20T17:32:01.461Z,74.17
2019-03-20T17:34:31.253Z,73.51
2019-03-20T17:37:01.072Z,74.42
2019-03-20T17:39:30.710Z,74.38
2019-03-20T17:42:00.381Z,74.04
2019-03-20T17:44:30.021Z,73.76
2019-03-20T17:47:00.317Z,74.74
2019-03-20T17:49:30.048Z,74.53
2019-03-20T17:51:59.765Z,74.99
2019-03-20T17:54:48.878Z,74.44
2019-03-20T17:57:18.653Z,73.73
2019-03-20T17:59:48.809Z,73.62
2019-03-20T18:02:24.787Z,74.35
2019-03-20T18:04:54.567Z,74.86
2019-03-20T18:07:24.299Z,75.06
2019-03-20T18:09:54.004Z,75.29
2019-03-20T18:12:23.946Z,75.02
2019-03-20T18:14:55.310Z,74.23
2019-03-20T18:17:27.816Z,74.05
2019-03-20T18:19:57.415Z,73.38
2019-03-20T18:22:27.023Z,73.34
2019-03-20T18:24:56.647Z,73.74
2019-03-20T18:27:27.535Z,73.98
2019-03-20T18:29:57.218Z,74.35
2019-03-20T18:32:27.011Z,75.04
2019-03-20T18:34:56.644Z,74.49
2019-03-20T18:37:27.219Z,74.66
2019-03-20T18:39:57.186Z,75.53
2019-03-20T18:42:27.347Z,76.55
2019-03-20T18:44:56.973Z,76.12
2019-03-20T18:47:26.838Z,76.11
2019-03-20T18:49:56.569Z,76.83
2019-03-20T18:52:26.277Z,76.86
2019-03-20T18:54:56.045Z,75.87
2019-03-20T18:57:25.788Z,75.73
2019-03-20T18:59:55.394Z,75.26
2019-03-20T19:02:26.069Z,75.46
2019-03-20T19:04:56.026Z,75.72
2019-03-20T19:07:26.148Z,75.31
2019-03-20T19:09:56.051Z,75.16
2019-03-20T19:12:25.984Z,74.70
2019-03-20T19:14:55.873Z,75.66
2019-03-20T19:17:25.642Z,75.70
2019-03-20T19:19:55.275Z,75.41
2019-03-20T19:22:24.966Z,76.05
2019-03-20T19:24:54.817Z,75.49
2019-03-20T19:27:24.386Z,74.34
2019-03-20T19:29:53.978Z,74.39
2019-03-20T19:32:23.641Z,75.08
2019-03-20T19:34:53.241Z,75.80
2019-03-20T19:37:22.837Z,75.81
2019-03-20T19:39:52.464Z,75.33
2019-03-20T19:42:22.199Z,76.09
2019-03-20T19:44:52.058Z,75.83
2019-03-20T19:47:21.803Z,76.32
2019-03-20T19:49:51.402Z,76.73
2019-03-20T19:52:21.253Z,77.46
2019-03-20T19:54:51.140Z,78.01
2019-03-20T19:57:21.357Z,77.59
2019-03-20T19:59:51.001Z,79.03
2019-03-20T20:02:20.668Z,79.36
2019-03-20T20:04:50.278Z,79.38
2019-03-20T20:07:19.892Z,79.62
2019-03-20T20:09:50.042Z,78.90
2019-03-20T20:12:30.595Z,79.03
2019-03-20T20:14:50.950Z,79.41
2019-03-20T20:17:20.635Z,79.05
2019-03-20T20:19:50.263Z,78.88
2019-03-20T20:22:19.879Z,79.13
2019-03-20T20:24:49.520Z,79.83
2019-03-20T20:27:19.228Z,79.66
2019-03-20T20:29:48.767Z,80.31
2019-03-20T20:32:20.355Z,80.14
2019-03-20T20:34:49.905Z,80.13
2019-03-20T20:37:19.552Z,79.92
2019-03-20T20:39:49.455Z,79.37
2019-03-20T20:42:19.159Z,79.54
2019-03-20T20:44:48.976Z,80.11
2019-03-20T20:47:18.562Z,79.87
2019-03-20T20:49:48.199Z,79.80
2019-03-20T20:52:19.600Z,79.59
2019-03-20T20:54:49.820Z,79.39
2019-03-20T20:57:19.438Z,79.28
2019-03-20T20:59:49.132Z,79.19
2019-03-20T21:02:18.843Z,79.27
2019-03-20T21:04:48.462Z,79.11
2019-03-20T21:07:17.999Z,78.67
2019-03-20T21:09:47.641Z,79.62
2019-03-20T21:12:17.763Z,79.35
2019-03-20T21:14:47.290Z,79.12
2019-03-20T21:17:22.351Z,78.67
2019-03-20T21:19:52.169Z,79.62
2019-03-20T21:22:35.212Z,79.14
2019-03-20T21:25:05.930Z,78.85
2019-03-20T21:28:30.514Z,79.28
2019-03-20T21:31:04.833Z,80.52
2019-03-20T21:34:01.319Z,80.79
2019-03-20T21:36:38.390Z,79.87
2019-03-20T21:39:10.354Z,80.18
2019-03-20T21:42:01.131Z,79.37
2019-03-20T21:45:16.093Z,78.81
2019-03-20T21:47:46.012Z,79.18
2019-03-20T21:50:53.887Z,79.85
2019-03-20T21:54:08.905Z,79.58
2019-03-20T21:57:01.111Z,80.41
2019-03-20T21:59:44.238Z,80.42
2019-03-20T22:03:05.223Z,80.24
2019-03-20T22:06:04.920Z,80.45
2019-03-20T22:08:36.665Z,80.30
2019-03-20T22:11:34.418Z,81.41
2019-03-20T22:14:14.177Z,80.92
2019-03-20T22:17:15.136Z,80.21
2019-03-20T22:20:07.355Z,79.61
2019-03-20T22:22:53.283Z,78.72
2019-03-20T22:25:58.308Z,78.86
2019-03-20T22:29:01.182Z,78.96
2019-03-20T22:31:35.526Z,79.01
2019-03-20T22:34:35.343Z,78.54
2019-03-20T22:37:05.059Z,79.41
2019-03-20T22:40:15.943Z,79.51
2019-03-20T22:43:17.137Z,78.25
2019-03-20T22:46:19.762Z,78.46
2019-03-20T22:49:18.009Z,78.37
2019-03-20T22:52:12.048Z,78.27
2019-03-20T22:55:12.857Z,78.62
2019-03-20T22:57:59.935Z,78.31
2019-03-20T23:00:31.927Z,78.41
2019-03-20T23:03:39.681Z,77.81
2019-03-20T23:06:09.545Z,77.56
2019-03-20T23:08:40.911Z,77.30
2019-03-20T23:11:10.782Z,77.39
2019-03-20T23:13:41.721Z,77.38
2019-03-20T23:16:16.198Z,77.62
2019-03-20T23:18:45.954Z,77.06
2019-03-20T23:21:18.096Z,77.06
2019-03-20T23:23:47.818Z,76.54
2019-03-20T23:26:17.600Z,76.26
2019-03-20T23:28:47.299Z,77.13
2019-03-20T23:31:17.153Z,77.32
2019-03-20T23:33:46.929Z,77.18
2019-03-20T23:36:18.136Z,78.30
2019-03-20T23:38:48.147Z,79.25
2019-03-20T23:41:17.909Z,78.33
2019-03-20T23:43:52.804Z,77.81
2019-03-20T23:46:19.204Z,78.03
2019-03-20T23:49:11.322Z,77.98
2019-03-20T23:51:41.251Z,78.42
2019-03-20T23:54:12.262Z,79.93
2019-03-20T23:56:43.374Z,80.34
2019-03-20T23:59:14.567Z,80.31
